createdAt,value
2019-02-10T00:03:41.029Z,1.80
2019-02-10T00:06:09.827Z,2.00
2019-02-10T00:08:38.457Z,2.17
2019-02-10T00:11:07.073Z,1.83
2019-02-10T00:13:36.629Z,1.87
2019-02-10T00:16:11.602Z,2.00
2019-02-10T00:18:40.148Z,2.30
2019-02-10T00:21:08.787Z,1.90
2019-02-10T00:23:37.346Z,2.40
2019-02-10T00:26:06.049Z,2.10
2019-02-10T00:28:34.602Z,1.97
2019-02-10T00:31:03.178Z,2.20
2019-02-10T00:33:33.252Z,1.73
2019-02-10T00:36:01.895Z,1.43
2019-02-10T00:38:30.958Z,2.80
2019-02-10T00:41:00.763Z,2.03
2019-02-10T00:43:29.267Z,1.80
2019-02-10T00:45:57.843Z,2.23
2019-02-10T00:48:26.459Z,2.10
2019-02-10T00:50:55.113Z,2.10
2019-02-10T00:53:24.209Z,1.60
2019-02-10T00:55:52.777Z,2.07
2019-02-10T00:58:21.660Z,1.50
2019-02-10T01:00:50.625Z,3.20
2019-02-10T01:03:19.789Z,2.07
2019-02-10T01:05:48.679Z,1.77
2019-02-10T01:08:17.253Z,1.90
2019-02-10T01:10:45.803Z,2.00
2019-02-10T01:13:14.425Z,2.33
2019-02-10T01:15:43.039Z,2.10
2019-02-10T01:18:11.645Z,1.80
2019-02-10T01:20:40.206Z,2.83
2019-02-10T01:23:08.786Z,2.30
2019-02-10T01:25:37.498Z,2.00
2019-02-10T01:28:06.321Z,2.80
2019-02-10T01:30:34.875Z,2.30
2019-02-10T01:33:04.081Z,2.03
2019-02-10T01:35:35.958Z,2.10
2019-02-10T01:38:04.884Z,1.80
2019-02-10T01:40:33.449Z,1.60
2019-02-10T01:43:04.730Z,1.93
2019-02-10T01:45:33.407Z,2.00
2019-02-10T01:48:05.137Z,2.83
2019-02-10T01:50:33.685Z,2.40
2019-02-10T01:53:02.277Z,1.70
2019-02-10T01:55:32.918Z,1.80
2019-02-10T01:58:03.140Z,1.73
2019-02-10T02:00:33.586Z,2.50
2019-02-10T02:03:02.321Z,2.20
2019-02-10T02:05:31.029Z,1.63
2019-02-10T02:08:02.396Z,2.10
2019-02-10T02:10:31.151Z,2.03
2019-02-10T02:12:59.804Z,2.67
2019-02-10T02:15:28.401Z,1.60
2019-02-10T02:17:56.966Z,2.57
2019-02-10T02:20:25.859Z,2.60
2019-02-10T02:22:54.428Z,1.77
2019-02-10T02:25:26.356Z,2.90
2019-02-10T02:27:54.925Z,2.00
2019-02-10T02:30:23.486Z,2.03
2019-02-10T02:32:52.445Z,2.27
2019-02-10T02:35:21.070Z,2.07
2019-02-10T02:37:49.729Z,1.83
2019-02-10T02:40:18.269Z,2.50
2019-02-10T02:42:46.886Z,2.23
2019-02-10T02:45:15.493Z,1.93
2019-02-10T02:47:44.105Z,2.07
2019-02-10T02:50:12.717Z,2.83
2019-02-10T02:52:42.754Z,2.27
2019-02-10T02:55:11.446Z,3.10
2019-02-10T02:57:40.031Z,2.10
2019-02-10T03:00:10.625Z,2.80
2019-02-10T03:02:39.171Z,2.50
2019-02-10T03:05:09.820Z,2.23
2019-02-10T03:07:38.424Z,2.70
2019-02-10T03:10:08.736Z,2.37
2019-02-10T03:12:37.381Z,2.40
2019-02-10T03:15:08.429Z,2.30
2019-02-10T03:17:36.971Z,2.50
2019-02-10T03:20:09.882Z,2.00
2019-02-10T03:22:38.434Z,2.60
2019-02-10T03:25:08.043Z,2.83
2019-02-10T03:27:36.582Z,2.40
2019-02-10T03:30:10.366Z,2.10
2019-02-10T03:32:38.921Z,1.73
2019-02-10T03:35:09.108Z,2.50
2019-02-10T03:37:37.706Z,2.43
2019-02-10T03:40:08.164Z,2.33
2019-02-10T03:42:36.828Z,2.50
2019-02-10T03:45:07.854Z,2.80
2019-02-10T03:47:36.395Z,2.23
2019-02-10T03:50:07.227Z,2.40
2019-02-10T03:52:36.152Z,2.43
2019-02-10T03:55:05.867Z,3.17
2019-02-10T03:57:34.959Z,2.70
2019-02-10T04:00:05.638Z,2.93
2019-02-10T04:02:34.261Z,2.40
2019-02-10T04:05:02.840Z,1.97
2019-02-10T04:07:36.085Z,2.90
2019-02-10T04:10:03.197Z,2.70
2019-02-10T04:12:33.259Z,2.37
2019-02-10T04:15:05.707Z,3.10
2019-02-10T04:17:34.631Z,2.50
2019-02-10T04:20:03.947Z,2.50
2019-02-10T04:22:35.389Z,1.87
2019-02-10T04:25:04.272Z,2.83
2019-02-10T04:27:33.184Z,3.73
2019-02-10T04:30:03.306Z,3.93
2019-02-10T04:32:34.929Z,3.30
2019-02-10T04:35:03.532Z,3.20
2019-02-10T04:37:32.084Z,2.80
2019-02-10T04:40:02.397Z,3.03
2019-02-10T04:42:31.310Z,3.73
2019-02-10T04:45:02.240Z,5.00
2019-02-10T04:47:30.859Z,2.80
2019-02-10T04:50:04.769Z,3.00
2019-02-10T04:52:33.391Z,2.40
2019-02-10T04:55:07.033Z,3.03
2019-02-10T04:57:35.721Z,3.00
2019-02-10T05:00:06.570Z,1.80
2019-02-10T05:02:35.242Z,3.17
2019-02-10T05:05:03.974Z,2.90
2019-02-10T05:07:35.665Z,3.30
2019-02-10T05:10:05.502Z,2.80
2019-02-10T05:12:34.292Z,3.03
2019-02-10T05:15:02.926Z,2.73
2019-02-10T05:17:31.535Z,2.30
2019-02-10T05:20:03.158Z,3.63
2019-02-10T05:22:33.386Z,2.53
2019-02-10T05:25:05.966Z,2.63
2019-02-10T05:27:34.505Z,3.20
2019-02-10T05:30:03.194Z,3.57
2019-02-10T05:32:31.942Z,3.97
2019-02-10T05:35:00.512Z,3.00
2019-02-10T05:37:29.253Z,2.50
2019-02-10T05:39:57.834Z,3.17
2019-02-10T05:42:26.542Z,2.63
2019-02-10T05:44:55.191Z,2.50
2019-02-10T05:47:26.794Z,3.27
2019-02-10T05:49:55.494Z,2.80
2019-02-10T05:52:24.054Z,2.70
2019-02-10T05:54:52.677Z,2.13
2019-02-10T05:57:22.650Z,2.77
2019-02-10T05:59:51.195Z,2.33
2019-02-10T06:02:21.405Z,2.00
2019-02-10T06:04:50.070Z,2.77
2019-02-10T06:07:18.666Z,2.23
2019-02-10T06:09:47.230Z,2.53
2019-02-10T06:12:15.803Z,2.10
2019-02-10T06:14:44.432Z,3.40
2019-02-10T06:17:13.097Z,2.80
2019-02-10T06:19:41.980Z,2.77
2019-02-10T06:22:10.953Z,3.03
2019-02-10T06:24:39.936Z,3.53
2019-02-10T06:27:08.856Z,2.10
2019-02-10T06:29:37.412Z,1.90
2019-02-10T06:32:05.994Z,2.60
2019-02-10T06:34:34.554Z,2.20
2019-02-10T06:37:03.130Z,2.30
2019-02-10T06:39:33.608Z,2.30
2019-02-10T06:42:02.315Z,3.40
2019-02-10T06:44:30.873Z,2.93
2019-02-10T06:46:59.539Z,2.13
2019-02-10T06:49:28.067Z,2.40
2019-02-10T06:51:56.818Z,2.33
2019-02-10T06:54:25.917Z,2.70
2019-02-10T06:56:54.494Z,2.73
2019-02-10T06:59:24.686Z,2.60
2019-02-10T07:04:37.292Z,3.40
2019-02-10T07:07:06.028Z,2.13
2019-02-10T07:09:37.483Z,2.20
2019-02-10T07:12:28.748Z,2.70
2019-02-10T07:15:00.418Z,2.40
2019-02-10T07:17:31.621Z,2.50
2019-02-10T07:20:38.536Z,2.70
2019-02-10T07:23:43.513Z,2.40
2019-02-10T07:26:14.267Z,1.70
2019-02-10T07:28:42.841Z,2.00
2019-02-10T07:31:11.532Z,2.13
2019-02-10T07:34:04.091Z,1.93
2019-02-10T07:37:10.921Z,2.40
2019-02-10T07:39:57.710Z,2.90
2019-02-10T07:42:37.971Z,3.50
2019-02-10T07:45:15.530Z,2.30
2019-02-10T07:47:50.136Z,2.00
2019-02-10T07:50:27.475Z,2.40
2019-02-10T07:53:02.120Z,1.97
2019-02-10T07:59:11.032Z,2.60
2019-02-10T08:02:01.520Z,2.70
2019-02-10T08:04:39.221Z,2.30
2019-02-10T08:07:17.559Z,1.87
2019-02-10T08:10:04.309Z,4.50
2019-02-10T08:12:38.907Z,2.40
2019-02-10T08:15:13.144Z,4.20
2019-02-10T08:17:47.514Z,2.90
2019-02-10T08:20:46.963Z,2.27
2019-02-10T08:23:27.226Z,4.13
2019-02-10T08:26:04.707Z,2.70
2019-02-10T08:28:39.004Z,3.70
2019-02-10T08:31:34.280Z,2.00
2019-02-10T08:34:26.457Z,2.50
2019-02-10T08:37:31.793Z,3.90
2019-02-10T08:40:15.212Z,2.40
2019-02-10T08:42:46.831Z,2.47
2019-02-10T08:45:45.063Z,2.23
2019-02-10T08:48:19.532Z,2.60
2019-02-10T08:50:53.874Z,2.30
2019-02-10T08:53:24.787Z,2.50
2019-02-10T08:55:53.332Z,2.50
2019-02-10T08:58:21.895Z,2.43
2019-02-10T09:00:50.445Z,3.00
2019-02-10T09:03:19.846Z,4.00
2019-02-10T09:05:48.557Z,2.73
2019-02-10T09:08:17.127Z,2.63
2019-02-10T09:10:45.699Z,3.23
2019-02-10T09:13:14.316Z,3.50
2019-02-10T09:15:43.272Z,3.30
2019-02-10T09:18:11.981Z,2.93
2019-02-10T09:20:40.929Z,2.73
2019-02-10T09:23:09.472Z,3.07
2019-02-10T09:25:38.050Z,2.67
2019-02-10T09:28:06.619Z,3.00
2019-02-10T09:30:35.180Z,2.83
2019-02-10T09:33:04.146Z,2.70
2019-02-10T09:35:33.061Z,4.07
2019-02-10T09:38:03.327Z,3.07
2019-02-10T09:40:34.676Z,3.77
2019-02-10T09:43:03.247Z,3.40
2019-02-10T09:45:33.335Z,2.90
2019-02-10T09:48:05.051Z,4.10
2019-02-10T09:50:33.630Z,3.10
2019-02-10T09:53:02.187Z,3.67
2019-02-10T09:55:32.577Z,3.40
2019-02-10T09:58:03.796Z,3.13
2019-02-10T10:00:33.903Z,4.00
2019-02-10T10:03:04.002Z,2.60
2019-02-10T10:05:35.472Z,3.10
2019-02-10T10:08:04.020Z,3.20
2019-02-10T10:10:35.373Z,3.67
2019-02-10T10:13:03.994Z,3.03
2019-02-10T10:15:33.137Z,2.90
2019-02-10T10:18:02.158Z,3.50
2019-02-10T10:20:32.473Z,3.13
2019-02-10T10:23:01.539Z,2.70
2019-02-10T10:25:30.520Z,3.60
2019-02-10T10:27:59.040Z,4.30
2019-02-10T10:30:27.611Z,3.17
2019-02-10T10:32:56.166Z,3.10
2019-02-10T10:35:24.744Z,3.13
2019-02-10T10:37:53.299Z,4.50
2019-02-10T10:40:21.944Z,3.70
2019-02-10T10:42:50.641Z,3.70
2019-02-10T10:45:20.652Z,4.00
2019-02-10T10:47:49.209Z,3.47
2019-02-10T10:50:18.171Z,3.27
2019-02-10T10:52:46.919Z,2.90
2019-02-10T10:55:15.804Z,3.23
2019-02-10T10:57:44.762Z,3.43
2019-02-10T11:00:15.253Z,3.23
2019-02-10T11:02:43.860Z,3.70
2019-02-10T11:05:12.622Z,4.77
2019-02-10T11:07:41.996Z,3.50
2019-02-10T11:10:12.891Z,3.90
2019-02-10T11:12:41.455Z,3.60
2019-02-10T11:15:15.055Z,2.90
2019-02-10T11:17:43.638Z,3.10
2019-02-10T11:20:12.725Z,3.27
2019-02-10T11:22:41.361Z,3.40
2019-02-10T11:25:11.841Z,3.33
2019-02-10T11:27:40.394Z,5.00
2019-02-10T11:30:14.672Z,3.70
2019-02-10T11:32:43.268Z,3.30
2019-02-10T11:35:12.139Z,3.33
2019-02-10T11:37:41.419Z,3.33
2019-02-10T11:40:33.744Z,2.83
2019-02-10T11:43:04.230Z,3.40
2019-02-10T11:45:33.731Z,2.80
2019-02-10T11:48:03.972Z,2.97
2019-02-10T11:50:35.475Z,2.57
2019-02-10T11:53:04.424Z,2.83
2019-02-10T11:55:33.371Z,3.40
2019-02-10T11:58:02.680Z,3.30
2019-02-10T12:00:32.183Z,3.50
2019-02-10T12:03:02.815Z,3.03
2019-02-10T12:05:34.080Z,2.73
2019-02-10T12:08:05.280Z,2.90
2019-02-10T12:10:35.787Z,3.17
2019-02-10T12:13:05.424Z,3.20
2019-02-10T12:15:34.772Z,3.00
2019-02-10T12:18:03.588Z,2.23
2019-02-10T12:20:33.127Z,2.33
2019-02-10T12:23:04.187Z,2.60
2019-02-10T12:25:33.475Z,2.60
2019-02-10T12:28:02.694Z,2.43
2019-02-10T12:30:34.454Z,2.40
2019-02-10T12:33:03.052Z,2.33
2019-02-10T12:35:33.478Z,3.37
2019-02-10T12:38:02.394Z,2.10
2019-02-10T12:40:30.936Z,2.30
2019-02-10T12:43:03.850Z,1.80
2019-02-10T12:45:32.372Z,2.27
2019-02-10T12:48:00.971Z,2.30
2019-02-10T12:50:29.772Z,2.07
2019-02-10T12:52:58.347Z,2.30
2019-02-10T12:55:27.352Z,2.63
2019-02-10T12:57:56.411Z,2.50
2019-02-10T13:00:24.994Z,2.53
2019-02-10T13:02:53.547Z,2.77
2019-02-10T13:05:22.123Z,2.47
2019-02-10T13:07:50.687Z,2.60
2019-02-10T13:10:19.333Z,2.90
2019-02-10T13:12:47.869Z,2.00
2019-02-10T13:15:16.457Z,2.80
2019-02-10T13:17:45.004Z,1.90
2019-02-10T13:20:14.049Z,2.90
2019-02-10T13:22:42.745Z,2.63
2019-02-10T13:25:14.921Z,3.80
2019-02-10T13:27:43.554Z,2.83
2019-02-10T13:30:15.127Z,2.43
2019-02-10T13:32:43.754Z,2.50
2019-02-10T13:35:12.466Z,2.00
2019-02-10T13:37:41.360Z,2.70
2019-02-10T13:40:16.999Z,2.93
2019-02-10T13:42:45.925Z,2.47
2019-02-10T13:45:14.590Z,2.60
2019-02-10T13:47:43.488Z,3.17
2019-02-10T13:50:17.097Z,2.30
2019-02-10T13:52:45.938Z,2.37
2019-02-10T13:55:15.713Z,3.27
2019-02-10T13:57:44.327Z,2.57
2019-02-10T14:00:15.539Z,2.73
2019-02-10T14:02:44.090Z,2.77
2019-02-10T14:05:12.731Z,3.23
2019-02-10T14:07:41.300Z,2.60
2019-02-10T14:10:13.563Z,2.20
2019-02-10T14:12:42.124Z,2.47
2019-02-10T14:15:13.195Z,2.60
2019-02-10T14:17:41.982Z,2.60
2019-02-10T14:20:18.612Z,2.90
2019-02-10T14:22:47.163Z,2.53
2019-02-10T14:25:15.894Z,2.90
2019-02-10T14:27:44.913Z,2.53
2019-02-10T14:30:24.386Z,2.17
2019-02-10T14:32:52.998Z,3.03
2019-02-10T14:35:23.636Z,3.23
2019-02-10T14:37:53.825Z,2.60
2019-02-10T14:40:24.379Z,2.90
2019-02-10T14:42:55.593Z,2.97
2019-02-10T14:45:27.288Z,2.77
2019-02-10T14:47:56.210Z,2.50
2019-02-10T14:50:24.837Z,2.80
2019-02-10T14:52:54.893Z,2.60
2019-02-10T14:55:25.339Z,2.33
2019-02-10T14:57:53.943Z,2.33
2019-02-10T15:00:22.515Z,2.80
2019-02-10T15:02:52.351Z,3.50
2019-02-10T15:05:22.921Z,2.50
2019-02-10T15:07:51.504Z,3.43
2019-02-10T15:10:21.313Z,2.53
2019-02-10T15:12:49.858Z,2.77
2019-02-10T15:15:18.807Z,3.20
2019-02-10T15:17:47.371Z,2.53
2019-02-10T15:20:15.957Z,2.40
2019-02-10T15:22:44.634Z,3.10
2019-02-10T15:25:14.442Z,3.20
2019-02-10T15:27:44.612Z,2.67
2019-02-10T15:30:15.433Z,2.60
2019-02-10T15:32:44.013Z,3.23
2019-02-10T15:35:18.408Z,3.47
2019-02-10T15:37:47.247Z,2.57
2019-02-10T15:40:15.804Z,3.30
2019-02-10T15:42:44.377Z,2.73
2019-02-10T15:45:13.968Z,2.93
2019-02-10T15:47:43.049Z,2.87
2019-02-10T15:50:13.045Z,2.90
2019-02-10T15:52:41.618Z,3.00
2019-02-10T15:55:14.520Z,2.60
2019-02-10T15:57:43.092Z,3.00
2019-02-10T16:00:26.614Z,2.73
2019-02-10T16:02:55.203Z,3.30
2019-02-10T16:05:23.748Z,3.13
2019-02-10T16:07:54.029Z,2.73
2019-02-10T16:10:22.576Z,2.90
2019-02-10T16:12:51.542Z,3.60
2019-02-10T16:15:20.091Z,2.83
2019-02-10T16:17:48.691Z,2.90
2019-02-10T16:20:17.243Z,3.00
2019-02-10T16:22:45.826Z,3.17
2019-02-10T16:25:14.795Z,3.07
2019-02-10T16:27:43.686Z,2.70
2019-02-10T16:30:18.053Z,2.43
2019-02-10T16:32:50.003Z,2.70
2019-02-10T16:35:17.036Z,2.73
2019-02-10T16:37:45.602Z,2.77
2019-02-10T16:40:19.286Z,3.33
2019-02-10T16:42:47.857Z,3.00
2019-02-10T16:45:16.482Z,3.30
2019-02-10T16:47:45.072Z,2.80
2019-02-10T16:50:14.951Z,3.20
2019-02-10T16:52:43.522Z,3.07
2019-02-10T16:55:17.187Z,3.30
2019-02-10T16:57:45.762Z,2.77
2019-02-10T17:00:15.751Z,2.80
2019-02-10T17:02:44.403Z,2.70
2019-02-10T17:05:14.108Z,2.67
2019-02-10T17:07:42.697Z,12.73
2019-02-10T17:10:18.728Z,4.83
2019-02-10T17:12:47.674Z,2.90
2019-02-10T17:15:16.234Z,2.33
2019-02-10T17:17:44.809Z,2.40
2019-02-10T17:20:14.408Z,2.30
2019-02-10T17:22:43.355Z,2.40
2019-02-10T17:25:24.098Z,2.43
2019-02-10T17:27:52.664Z,2.40
2019-02-10T17:30:22.602Z,2.30
2019-02-10T17:32:52.993Z,2.70
2019-02-10T17:35:23.636Z,2.50
2019-02-10T17:37:52.554Z,2.23
2019-02-10T17:40:37.569Z,2.00
2019-02-10T17:43:06.139Z,2.30
2019-02-10T17:45:34.685Z,2.17
2019-02-10T17:48:03.300Z,2.10
2019-02-10T17:50:31.876Z,1.70
2019-02-10T17:53:00.425Z,2.07
2019-02-10T17:55:28.997Z,2.27
2019-02-10T17:57:57.973Z,2.30
2019-02-10T18:00:28.187Z,2.50
2019-02-10T18:02:56.744Z,2.13
2019-02-10T18:05:25.663Z,2.50
2019-02-10T18:07:55.752Z,2.17
2019-02-10T18:10:27.087Z,2.67
2019-02-10T18:12:55.634Z,2.30
2019-02-10T18:15:43.672Z,1.77
2019-02-10T18:18:30.082Z,2.70
2019-02-10T18:21:16.779Z,1.70
2019-02-10T18:23:47.004Z,2.37
2019-02-10T18:26:29.069Z,1.90
2019-02-10T18:29:05.159Z,1.90
2019-02-10T18:31:35.345Z,1.70
2019-02-10T18:34:14.190Z,2.13
2019-02-10T18:36:47.351Z,2.00
2019-02-10T18:39:26.489Z,1.73
2019-02-10T18:42:20.626Z,2.00
2019-02-10T18:44:53.507Z,1.80
2019-02-10T18:47:35.844Z,2.10
2019-02-10T18:50:08.002Z,1.90
2019-02-10T18:52:38.198Z,1.90
2019-02-10T18:55:08.649Z,1.57
2019-02-10T18:57:47.773Z,1.87
2019-02-10T19:00:34.491Z,1.63
2019-02-10T19:03:13.442Z,2.07
2019-02-10T19:05:55.514Z,1.90
2019-02-10T19:08:32.945Z,2.03
2019-02-10T19:11:09.657Z,1.97
2019-02-10T19:13:39.835Z,1.80
2019-02-10T19:16:10.420Z,1.90
2019-02-10T19:18:55.280Z,1.20
2019-02-10T19:21:28.245Z,1.70
2019-02-10T19:24:01.190Z,1.37
2019-02-10T19:26:49.171Z,1.27
2019-02-10T19:29:22.368Z,1.97
2019-02-10T19:31:56.454Z,2.13
2019-02-10T19:34:41.972Z,1.27
2019-02-10T19:37:12.193Z,1.43
2019-02-10T19:39:42.386Z,1.57
2019-02-10T19:42:18.889Z,1.33
2019-02-10T19:44:58.119Z,1.20
2019-02-10T19:47:28.848Z,1.43
2019-02-10T19:49:59.051Z,1.33
2019-02-10T19:52:29.249Z,1.30
2019-02-10T19:54:59.503Z,1.27
2019-02-10T19:57:35.472Z,1.33
2019-02-10T20:00:13.171Z,1.10
2019-02-10T20:03:00.251Z,1.70
2019-02-10T20:05:42.264Z,1.37
2019-02-10T20:08:18.270Z,1.43
2019-02-10T20:10:48.960Z,1.30
2019-02-10T20:13:19.530Z,1.40
2019-02-10T20:15:50.093Z,3.03
2019-02-10T20:18:20.371Z,2.50
2019-02-10T20:20:53.775Z,2.13
2019-02-10T20:23:39.765Z,1.30
2019-02-10T20:26:40.145Z,1.53
2019-02-10T20:29:13.607Z,1.47
2019-02-10T20:31:49.718Z,1.83
2019-02-10T20:34:26.694Z,1.13
2019-02-10T20:37:15.901Z,1.40
2019-02-10T20:40:02.663Z,1.17
2019-02-10T20:42:39.168Z,1.20
2019-02-10T20:45:12.485Z,1.10
2019-02-10T20:47:58.531Z,1.00
2019-02-10T20:50:38.624Z,1.00
2019-02-10T20:53:08.798Z,1.10
2019-02-10T20:55:39.010Z,1.00
2019-02-10T20:58:09.212Z,2.13
2019-02-10T21:00:40.132Z,1.00
2019-02-10T21:03:19.241Z,0.80
2019-02-10T21:06:07.564Z,0.80
2019-02-10T21:08:40.712Z,0.70
2019-02-10T21:11:20.101Z,0.80
2019-02-10T21:13:50.311Z,1.00
2019-02-10T21:16:29.387Z,0.73
2019-02-10T21:19:17.968Z,0.70
2019-02-10T21:24:39.100Z,0.97
2019-02-10T21:27:18.547Z,0.70
2019-02-10T21:29:57.834Z,0.70
2019-02-10T21:32:36.889Z,0.80
2019-02-10T21:35:17.112Z,0.90
2019-02-10T21:37:50.432Z,1.10
2019-02-10T21:40:26.472Z,0.90
2019-02-10T21:42:56.723Z,0.80
2019-02-10T21:45:30.120Z,0.77
2019-02-10T21:48:00.405Z,0.70
2019-02-10T21:50:29.090Z,0.70
2019-02-10T21:52:57.726Z,0.80
2019-02-10T21:55:26.274Z,0.80
2019-02-10T21:57:54.826Z,0.90
2019-02-10T22:00:25.275Z,0.70
2019-02-10T22:02:53.899Z,0.83
2019-02-10T22:05:24.692Z,1.10
2019-02-10T22:07:54.824Z,0.90
2019-02-10T22:10:24.912Z,0.93
2019-02-10T22:12:55.047Z,1.00
2019-02-10T22:15:27.062Z,0.90
2019-02-10T22:17:55.659Z,0.70
2019-02-10T22:20:25.764Z,0.70
2019-02-10T22:22:57.435Z,1.03
2019-02-10T22:25:25.999Z,0.73
2019-02-10T22:27:54.534Z,0.77
2019-02-10T22:30:23.247Z,0.80
2019-02-10T22:32:52.897Z,0.90
2019-02-10T22:35:23.401Z,0.67
2019-02-10T22:37:54.878Z,0.67
2019-02-10T22:40:24.960Z,0.70
2019-02-10T22:42:56.337Z,0.80
2019-02-10T22:45:24.900Z,0.60
2019-02-10T22:47:54.980Z,0.60
2019-02-10T22:50:26.656Z,0.50
2019-02-10T22:52:55.201Z,0.57
2019-02-10T22:55:23.777Z,0.60
2019-02-10T22:57:53.959Z,0.70
2019-02-10T23:00:36.306Z,0.60
2019-02-10T23:03:05.279Z,0.67
2019-02-10T23:05:34.184Z,0.60
2019-02-10T23:08:03.111Z,0.90
2019-02-10T23:10:32.195Z,0.90
2019-02-10T23:13:00.742Z,0.80
2019-02-10T23:15:29.653Z,0.60
2019-02-10T23:17:58.209Z,0.67
2019-02-10T23:20:26.778Z,0.70
2019-02-10T23:22:55.322Z,0.60
2019-02-10T23:25:23.896Z,0.80
2019-02-10T23:27:54.181Z,0.60
2019-02-10T23:30:22.821Z,0.70
2019-02-10T23:32:51.379Z,0.70
2019-02-10T23:35:20.330Z,0.60
2019-02-10T23:37:48.900Z,0.80
2019-02-10T23:40:17.456Z,0.73
2019-02-10T23:42:46.011Z,0.90
2019-02-10T23:45:14.568Z,0.80
2019-02-10T23:47:43.525Z,0.60
2019-02-10T23:50:12.401Z,0.80
2019-02-10T23:52:40.952Z,0.80
2019-02-10T23:55:12.279Z,0.63
2019-02-10T23:57:40.846Z,0.70
